Modoc, South Carolina
Current Conditions -  °F | °C
As of 10:53 AM on Friday 28 Nov 2014 (Local Time) from KDNL Reporting Station
Clear Clear  
Wind Chill: 42°   Ceiling: Unl
Heat Index: 42°   Visibility: 10mi
Dew Point: 20°   Wind: 3mph
Humidity: 41%   Direction: NA
Pressure: 30.41"   Gusts: NA
Location:  33.73°N, 82.21°W
Report Text: KDNL 281553Z AUTO VRB03KT 10SM CLR 06/M07 A3041 RMK AO2 SLP299 T00561067
Loading
Personal Weather Stations






























Interactive Weather Map New forecast layout! Learn more

10-Day Weather Forecast

Advertisements
Track Severe Weather on mobile